createdAt,value
2019-03-26T00:00:47.238Z,0.00
2019-03-26T00:01:47.215Z,0.00
2019-03-26T00:02:47.194Z,0.00
2019-03-26T00:03:47.175Z,0.00
2019-03-26T00:04:47.149Z,0.00
2019-03-26T00:05:47.127Z,0.00
2019-03-26T00:06:47.098Z,0.00
2019-03-26T00:07:47.077Z,0.00
2019-03-26T00:08:47.055Z,0.00
2019-03-26T00:09:47.034Z,0.00
2019-03-26T00:10:47.009Z,0.00
2019-03-26T00:11:46.996Z,0.00
2019-03-26T00:12:46.971Z,0.00
2019-03-26T00:13:46.945Z,0.00
2019-03-26T00:14:46.923Z,0.00
2019-03-26T00:15:46.904Z,0.00
2019-03-26T00:16:46.878Z,0.00
2019-03-26T00:17:46.858Z,0.00
2019-03-26T00:18:46.829Z,0.00
2019-03-26T00:19:46.807Z,0.00
2019-03-26T00:20:46.787Z,0.00
2019-03-26T00:21:46.765Z,0.00
2019-03-26T00:22:46.743Z,0.00
2019-03-26T00:23:46.718Z,0.00
2019-03-26T00:24:46.699Z,0.00
2019-03-26T00:25:46.675Z,0.00
2019-03-26T00:26:46.655Z,0.00
2019-03-26T00:27:46.633Z,0.00
2019-03-26T00:28:46.606Z,0.00
2019-03-26T00:29:46.581Z,0.00
2019-03-26T00:30:46.565Z,0.00
2019-03-26T00:31:46.539Z,0.00
2019-03-26T00:32:46.519Z,0.00
2019-03-26T00:33:46.499Z,0.00
2019-03-26T00:34:46.475Z,0.00
2019-03-26T00:35:46.452Z,0.00
2019-03-26T00:36:46.425Z,0.00
2019-03-26T00:37:46.402Z,0.00
2019-03-26T00:38:46.451Z,0.00
2019-03-26T00:39:46.361Z,0.00
2019-03-26T00:40:46.337Z,0.00
2019-03-26T00:41:46.314Z,0.00
2019-03-26T00:42:46.289Z,0.00
2019-03-26T00:43:46.272Z,0.00
2019-03-26T00:44:46.251Z,0.00
2019-03-26T00:45:46.225Z,0.00
2019-03-26T00:46:46.219Z,0.00
2019-03-26T00:47:46.177Z,0.00
2019-03-26T00:48:46.156Z,0.00
2019-03-26T00:49:46.135Z,0.00
2019-03-26T00:50:46.114Z,0.00
2019-03-26T00:51:46.090Z,0.00
2019-03-26T00:52:46.156Z,0.00
2019-03-26T00:53:46.046Z,0.00
2019-03-26T00:54:46.028Z,0.00
2019-03-26T00:55:45.997Z,0.00
2019-03-26T00:56:45.976Z,0.00
2019-03-26T00:57:45.954Z,0.00
2019-03-26T00:58:45.982Z,0.00
2019-03-26T00:59:45.906Z,0.00
2019-03-26T01:00:45.888Z,0.00
2019-03-26T01:01:45.864Z,0.00
2019-03-26T01:02:45.840Z,0.00
2019-03-26T01:03:45.816Z,0.00
2019-03-26T01:04:45.796Z,0.00
2019-03-26T01:05:45.774Z,0.00
2019-03-26T01:06:45.752Z,0.00
2019-03-26T01:07:45.726Z,0.00
2019-03-26T01:08:45.707Z,0.00
2019-03-26T01:09:45.683Z,0.00
2019-03-26T01:10:45.661Z,0.00
2019-03-26T01:11:45.638Z,0.00
2019-03-26T01:12:45.618Z,0.00
2019-03-26T01:13:45.596Z,0.00
2019-03-26T01:14:45.570Z,0.00
2019-03-26T01:15:45.555Z,0.00
2019-03-26T01:16:45.530Z,0.00
2019-03-26T01:17:45.504Z,0.00
2019-03-26T01:18:45.480Z,0.00
2019-03-26T01:19:45.458Z,0.00
2019-03-26T01:20:45.440Z,0.00
2019-03-26T01:21:45.412Z,0.00
2019-03-26T01:22:45.394Z,0.00
2019-03-26T01:23:45.368Z,0.00
2019-03-26T01:24:45.348Z,0.00
2019-03-26T01:25:45.322Z,0.00
2019-03-26T01:26:45.298Z,0.00
2019-03-26T01:27:45.278Z,0.00
2019-03-26T01:28:45.252Z,0.00
2019-03-26T01:29:45.230Z,0.00
2019-03-26T01:30:45.208Z,0.00
2019-03-26T01:31:45.186Z,0.00
2019-03-26T01:32:45.165Z,0.00
2019-03-26T01:33:45.149Z,0.00
2019-03-26T01:34:46.121Z,0.00
2019-03-26T01:35:45.096Z,0.00
2019-03-26T01:36:45.075Z,0.00
2019-03-26T01:37:45.051Z,0.00
2019-03-26T01:38:45.030Z,0.00
2019-03-26T01:39:45.005Z,0.00
2019-03-26T01:40:44.989Z,0.00
2019-03-26T01:41:44.962Z,0.00
2019-03-26T01:42:44.946Z,0.00
2019-03-26T01:43:44.913Z,0.00
2019-03-26T01:44:44.893Z,0.00
2019-03-26T01:45:44.872Z,0.00
2019-03-26T01:46:44.847Z,0.00
2019-03-26T01:47:44.826Z,0.00
2019-03-26T01:48:44.802Z,0.00
2019-03-26T01:49:44.779Z,0.00
2019-03-26T01:50:44.758Z,0.00
2019-03-26T01:51:44.733Z,0.00
2019-03-26T01:52:44.723Z,0.00
2019-03-26T01:53:44.685Z,0.00
2019-03-26T01:54:44.663Z,0.00
2019-03-26T01:55:44.643Z,0.00
2019-03-26T01:56:44.622Z,0.00
2019-03-26T01:57:44.600Z,0.00
2019-03-26T01:58:44.577Z,0.00
2019-03-26T01:59:44.553Z,0.00
2019-03-26T02:00:44.529Z,0.00
2019-03-26T02:01:44.510Z,0.00
2019-03-26T02:02:44.502Z,0.00
2019-03-26T02:03:44.464Z,0.00
2019-03-26T02:04:44.446Z,0.00
2019-03-26T02:05:44.421Z,0.00
2019-03-26T02:06:44.396Z,0.00
2019-03-26T02:07:44.376Z,0.00
2019-03-26T02:08:44.349Z,0.00
2019-03-26T02:09:44.332Z,0.00
2019-03-26T02:10:44.307Z,0.00
2019-03-26T02:11:44.286Z,0.00
2019-03-26T02:12:44.263Z,0.00
2019-03-26T02:13:44.238Z,0.00
2019-03-26T02:14:44.220Z,0.00
2019-03-26T02:15:44.195Z,0.00
2019-03-26T02:16:44.173Z,0.00
2019-03-26T02:17:44.151Z,0.00
2019-03-26T02:18:44.124Z,0.00
2019-03-26T02:19:44.099Z,0.00
2019-03-26T02:20:44.076Z,0.00
2019-03-26T02:21:44.056Z,0.00
2019-03-26T02:22:44.039Z,0.00
2019-03-26T02:23:44.014Z,0.00
2019-03-26T02:24:43.990Z,0.00
2019-03-26T02:25:43.966Z,0.00
2019-03-26T02:26:43.937Z,0.00
2019-03-26T02:27:43.917Z,0.00
2019-03-26T02:28:43.901Z,0.00
2019-03-26T02:29:43.877Z,0.00
2019-03-26T02:30:43.862Z,0.00
2019-03-26T02:31:43.836Z,0.00
2019-03-26T02:32:43.804Z,0.00
2019-03-26T02:33:43.783Z,0.00
2019-03-26T02:34:43.764Z,0.00
2019-03-26T02:35:43.740Z,0.00
2019-03-26T02:36:43.719Z,0.00
2019-03-26T02:37:43.696Z,0.00
2019-03-26T02:38:43.681Z,0.00
2019-03-26T02:39:43.648Z,0.00
2019-03-26T02:40:43.622Z,0.00
2019-03-26T02:41:43.600Z,0.00
2019-03-26T02:42:43.587Z,0.00
2019-03-26T02:43:43.558Z,0.00
2019-03-26T02:44:43.538Z,0.00
2019-03-26T02:45:43.510Z,0.00
2019-03-26T02:46:43.497Z,0.00
2019-03-26T02:47:43.470Z,0.00
2019-03-26T02:48:43.449Z,0.00
2019-03-26T02:49:43.422Z,0.00
2019-03-26T02:50:43.397Z,0.00
2019-03-26T02:51:43.377Z,0.00
2019-03-26T02:52:43.350Z,0.00
2019-03-26T02:53:43.333Z,0.00
2019-03-26T02:54:43.306Z,0.00
2019-03-26T02:55:43.283Z,0.00
2019-03-26T02:56:43.266Z,0.00
2019-03-26T02:57:43.251Z,0.00
2019-03-26T02:58:43.215Z,0.00
2019-03-26T02:59:43.188Z,0.00
2019-03-26T03:00:43.170Z,0.00
2019-03-26T03:01:43.145Z,0.00
2019-03-26T03:02:43.129Z,0.00
2019-03-26T03:03:43.111Z,0.00
2019-03-26T03:04:43.080Z,0.00
2019-03-26T03:05:43.061Z,0.00
2019-03-26T03:06:43.041Z,0.00
2019-03-26T03:07:43.010Z,0.00
2019-03-26T03:08:42.987Z,0.00
2019-03-26T03:09:42.966Z,0.00
2019-03-26T03:10:42.952Z,0.00
2019-03-26T03:11:42.919Z,0.00
2019-03-26T03:12:42.903Z,0.00
2019-03-26T03:13:42.876Z,0.00
2019-03-26T03:14:42.849Z,0.00
2019-03-26T03:15:42.831Z,0.00
2019-03-26T03:16:42.804Z,0.00
2019-03-26T03:17:42.782Z,0.00
2019-03-26T03:18:42.758Z,0.00
2019-03-26T03:19:42.737Z,0.00
2019-03-26T03:20:42.729Z,0.00
2019-03-26T03:21:42.690Z,0.00
2019-03-26T03:22:42.673Z,0.00
2019-03-26T03:23:42.647Z,0.00
2019-03-26T03:24:42.625Z,0.00
2019-03-26T03:25:42.597Z,0.00
2019-03-26T03:26:42.577Z,0.00
2019-03-26T03:27:42.557Z,0.00
2019-03-26T03:28:42.534Z,0.00
2019-03-26T03:29:42.506Z,0.00
2019-03-26T03:30:42.490Z,0.00
2019-03-26T03:31:42.468Z,0.00
2019-03-26T03:32:42.445Z,0.00
2019-03-26T03:33:42.421Z,0.00
2019-03-26T03:34:42.399Z,0.00
2019-03-26T03:35:52.003Z,0.00
2019-03-26T03:36:42.354Z,0.00
2019-03-26T03:37:42.337Z,0.00
2019-03-26T03:38:42.307Z,0.00
2019-03-26T03:39:42.287Z,0.00
2019-03-26T03:40:42.266Z,0.00
2019-03-26T03:41:42.237Z,0.00
2019-03-26T03:42:42.234Z,0.00
2019-03-26T03:43:42.191Z,0.00
2019-03-26T03:44:42.175Z,0.00
2019-03-26T03:45:42.149Z,0.00
2019-03-26T03:46:42.123Z,0.00
2019-03-26T03:47:42.100Z,0.00
2019-03-26T03:48:42.083Z,0.00
2019-03-26T03:49:42.054Z,0.00
2019-03-26T03:50:42.033Z,0.00
2019-03-26T03:51:42.021Z,0.00
2019-03-26T03:52:41.989Z,0.00
2019-03-26T03:53:41.966Z,0.00
2019-03-26T03:54:41.939Z,0.00
2019-03-26T03:55:41.919Z,0.00
2019-03-26T03:56:41.895Z,0.00
2019-03-26T03:57:41.885Z,0.00
2019-03-26T03:58:41.848Z,0.00
2019-03-26T03:59:41.826Z,0.00
2019-03-26T04:00:41.812Z,0.00
2019-03-26T04:01:41.781Z,0.00
2019-03-26T04:02:41.764Z,0.00
2019-03-26T04:03:41.740Z,0.00
2019-03-26T04:04:41.720Z,0.00
2019-03-26T04:05:41.694Z,0.00
2019-03-26T04:06:41.672Z,0.00
2019-03-26T04:07:41.656Z,0.00
2019-03-26T04:08:41.623Z,0.00
2019-03-26T04:09:41.604Z,0.00
2019-03-26T04:10:41.587Z,0.00
2019-03-26T04:11:41.557Z,0.00
2019-03-26T04:12:41.535Z,0.00
2019-03-26T04:13:41.511Z,0.00
2019-03-26T04:14:41.488Z,0.00
2019-03-26T04:15:41.472Z,0.00
2019-03-26T04:16:41.444Z,0.00
2019-03-26T04:17:41.422Z,0.00
2019-03-26T04:18:41.397Z,0.00
2019-03-26T04:19:41.376Z,0.00
2019-03-26T04:20:41.351Z,0.00
2019-03-26T04:21:41.331Z,0.00
2019-03-26T04:22:41.308Z,0.00
2019-03-26T04:23:41.288Z,0.00
2019-03-26T04:24:41.263Z,4.00
2019-03-26T04:25:41.246Z,4.00
2019-03-26T04:26:41.219Z,0.00
2019-03-26T04:27:41.192Z,0.00
2019-03-26T04:28:41.169Z,0.00
2019-03-26T04:29:41.147Z,4.00
2019-03-26T04:30:41.122Z,4.00
2019-03-26T04:31:41.102Z,4.00
2019-03-26T04:32:41.084Z,4.00
2019-03-26T04:33:41.056Z,4.00
2019-03-26T04:34:41.036Z,8.00
2019-03-26T04:35:41.105Z,8.00
2019-03-26T04:36:40.986Z,8.00
2019-03-26T04:37:40.970Z,12.00
2019-03-26T04:38:40.941Z,12.00
2019-03-26T04:39:40.925Z,16.00
2019-03-26T04:40:40.905Z,16.00
2019-03-26T04:41:40.872Z,20.00
2019-03-26T04:42:40.853Z,24.00
2019-03-26T04:43:40.832Z,28.00
2019-03-26T04:44:40.810Z,32.00
2019-03-26T04:45:40.785Z,36.00
2019-03-26T04:46:40.759Z,40.00
2019-03-26T04:47:40.740Z,48.00
2019-03-26T04:48:40.722Z,56.00
2019-03-26T04:49:40.691Z,64.00
2019-03-26T04:50:40.668Z,68.00
2019-03-26T04:51:40.654Z,80.00
2019-03-26T04:52:40.623Z,88.00
2019-03-26T04:53:40.597Z,100.00
2019-03-26T04:54:40.632Z,108.00
2019-03-26T04:55:40.557Z,116.00
2019-03-26T04:56:40.535Z,136.00
2019-03-26T04:57:40.510Z,144.00
2019-03-26T04:58:40.490Z,160.00
2019-03-26T04:59:40.467Z,172.00
2019-03-26T05:00:40.450Z,192.00
2019-03-26T05:01:40.420Z,204.00
2019-03-26T05:02:40.397Z,216.00
2019-03-26T05:03:40.380Z,240.00
2019-03-26T05:04:40.351Z,236.00
2019-03-26T05:05:40.332Z,256.00
2019-03-26T05:06:40.305Z,252.00
2019-03-26T05:07:40.283Z,292.00
2019-03-26T05:08:40.260Z,304.00
2019-03-26T05:09:40.243Z,308.00
2019-03-26T05:10:40.216Z,336.00
2019-03-26T05:11:40.195Z,412.00
2019-03-26T05:12:40.176Z,384.00
2019-03-26T05:13:40.147Z,384.00
2019-03-26T05:14:40.120Z,468.00
2019-03-26T05:15:40.102Z,500.00
2019-03-26T05:16:40.082Z,516.00
2019-03-26T05:17:40.057Z,584.00
2019-03-26T05:18:40.033Z,556.00
2019-03-26T05:19:40.008Z,584.00
2019-03-26T05:20:39.986Z,664.00
2019-03-26T05:21:39.963Z,680.00
2019-03-26T05:22:39.937Z,640.00
2019-03-26T05:23:39.917Z,612.00
2019-03-26T05:24:39.899Z,488.00
2019-03-26T05:25:39.874Z,408.00
2019-03-26T05:26:39.850Z,468.00
2019-03-26T05:27:45.419Z,448.00
2019-03-26T05:28:39.804Z,564.00
2019-03-26T05:29:39.783Z,444.00
2019-03-26T05:30:39.759Z,696.00
2019-03-26T05:31:39.736Z,524.00
2019-03-26T05:32:39.712Z,632.00
2019-03-26T05:33:39.692Z,636.00
2019-03-26T05:34:39.668Z,668.00
2019-03-26T05:35:39.651Z,604.00
2019-03-26T05:36:50.598Z,852.00
2019-03-26T05:37:39.598Z,576.00
2019-03-26T05:38:39.579Z,508.00
2019-03-26T05:39:39.558Z,600.00
2019-03-26T05:40:39.532Z,620.00
2019-03-26T05:41:39.506Z,516.00
2019-03-26T05:42:39.490Z,524.00
2019-03-26T05:43:39.468Z,488.00
2019-03-26T05:44:39.448Z,520.00
2019-03-26T05:45:39.417Z,488.00
2019-03-26T05:46:39.396Z,504.00
2019-03-26T05:47:39.374Z,436.00
2019-03-26T05:48:39.351Z,464.00
2019-03-26T05:49:39.327Z,508.00
2019-03-26T05:50:39.307Z,404.00
2019-03-26T05:51:39.280Z,488.00
2019-03-26T05:52:39.273Z,548.00
2019-03-26T05:53:39.248Z,356.00
2019-03-26T05:54:39.212Z,384.00
2019-03-26T05:55:39.194Z,408.00
2019-03-26T05:56:39.178Z,380.00
2019-03-26T05:57:39.150Z,388.00
2019-03-26T05:58:39.131Z,432.00
2019-03-26T05:59:39.108Z,428.00
2019-03-26T06:00:39.083Z,372.00
2019-03-26T06:01:39.056Z,460.00
2019-03-26T06:02:39.048Z,452.00
2019-03-26T06:03:39.023Z,372.00
2019-03-26T06:04:38.989Z,408.00
2019-03-26T06:05:38.965Z,424.00
2019-03-26T06:06:38.949Z,420.00
2019-03-26T06:07:38.924Z,364.00
2019-03-26T06:08:38.901Z,516.00
2019-03-26T06:09:38.877Z,532.00
2019-03-26T06:10:38.857Z,596.00
2019-03-26T06:11:38.881Z,448.00
2019-03-26T06:12:38.811Z,436.00
2019-03-26T06:13:38.788Z,792.00
2019-03-26T06:14:38.766Z,1016.00
2019-03-26T06:15:38.740Z,780.00
2019-03-26T06:16:38.901Z,828.00
2019-03-26T06:17:38.697Z,748.00
2019-03-26T06:18:38.678Z,716.00
2019-03-26T06:19:38.657Z,820.00
2019-03-26T06:20:38.634Z,880.00
2019-03-26T06:21:38.603Z,1000.00
2019-03-26T06:22:38.585Z,852.00
2019-03-26T06:23:38.556Z,772.00
2019-03-26T06:24:38.543Z,840.00
2019-03-26T06:25:38.515Z,720.00
2019-03-26T06:26:38.499Z,684.00
2019-03-26T06:27:38.477Z,680.00
2019-03-26T06:28:38.448Z,976.00
2019-03-26T06:29:38.427Z,1540.00
2019-03-26T06:30:38.407Z,1684.00
2019-03-26T06:31:38.381Z,1652.00
2019-03-26T06:32:38.359Z,2016.00
2019-03-26T06:33:38.338Z,2484.00
2019-03-26T06:34:38.316Z,2556.00
2019-03-26T06:35:38.289Z,2956.00
2019-03-26T06:36:38.274Z,3160.00
2019-03-26T06:37:38.255Z,3308.00
2019-03-26T06:38:38.229Z,3140.00
2019-03-26T06:39:38.211Z,3384.00
2019-03-26T06:40:38.182Z,2892.00
2019-03-26T06:41:38.154Z,4080.00
2019-03-26T06:42:38.134Z,3556.00
2019-03-26T06:43:38.113Z,3232.00
2019-03-26T06:44:38.090Z,3412.00
2019-03-26T06:45:38.075Z,5048.00
2019-03-26T06:46:38.045Z,5348.00
2019-03-26T06:47:38.026Z,6572.00
2019-03-26T06:48:38.001Z,5912.00
2019-03-26T06:49:37.984Z,4704.00
2019-03-26T06:50:37.955Z,3936.00
2019-03-26T06:51:37.935Z,3904.00
2019-03-26T06:52:37.915Z,3388.00
2019-03-26T06:53:37.891Z,3396.00
2019-03-26T06:54:37.873Z,3284.00
2019-03-26T06:55:37.851Z,2668.00
2019-03-26T06:56:37.824Z,3400.00
2019-03-26T06:57:37.801Z,3448.00
2019-03-26T06:58:37.789Z,3368.00
2019-03-26T06:59:37.764Z,3904.00
2019-03-26T07:00:37.738Z,3044.00
2019-03-26T07:01:37.715Z,3160.00
2019-03-26T07:02:37.694Z,2464.00
2019-03-26T07:03:37.670Z,2660.00
2019-03-26T07:04:37.646Z,2996.00
2019-03-26T07:05:37.626Z,2688.00
2019-03-26T07:06:37.605Z,2648.00
2019-03-26T07:07:37.586Z,3020.00
2019-03-26T07:08:37.559Z,2836.00
2019-03-26T07:09:37.543Z,2596.00
2019-03-26T07:10:37.515Z,3136.00
2019-03-26T07:11:37.497Z,2484.00
2019-03-26T07:12:37.476Z,3056.00
2019-03-26T07:13:37.451Z,3264.00
2019-03-26T07:14:37.435Z,3284.00
2019-03-26T07:15:37.409Z,4428.00
2019-03-26T07:16:37.389Z,4616.00
2019-03-26T07:17:37.367Z,3136.00
2019-03-26T07:18:37.339Z,3080.00
2019-03-26T07:19:37.321Z,3028.00
2019-03-26T07:20:37.300Z,2416.00
2019-03-26T07:21:49.137Z,3064.00
2019-03-26T07:22:37.256Z,2952.00
2019-03-26T07:23:37.232Z,3236.00
2019-03-26T07:24:37.210Z,3152.00
2019-03-26T07:25:40.297Z,3044.00
2019-03-26T07:26:37.165Z,2416.00
2019-03-26T07:27:37.148Z,2132.00
2019-03-26T07:28:37.133Z,2972.00
2019-03-26T07:29:37.102Z,2756.00
2019-03-26T07:30:37.089Z,2212.00
2019-03-26T07:31:37.063Z,2376.00
2019-03-26T07:32:37.048Z,2780.00
2019-03-26T07:33:37.023Z,2244.00
2019-03-26T07:34:36.991Z,2436.00
2019-03-26T07:35:36.975Z,2400.00
2019-03-26T07:36:36.948Z,3052.00
2019-03-26T07:37:45.004Z,2988.00
2019-03-26T07:38:36.917Z,2924.00
2019-03-26T07:39:39.117Z,4128.00
2019-03-26T07:40:36.867Z,4876.00
2019-03-26T07:41:36.840Z,5636.00
2019-03-26T07:42:36.823Z,7960.00
2019-03-26T07:43:36.800Z,5552.00
2019-03-26T07:44:36.784Z,45568.00
2019-03-26T07:45:36.766Z,49472.00
2019-03-26T07:46:36.736Z,48448.00
2019-03-26T07:47:36.720Z,49760.00
2019-03-26T07:48:36.695Z,50816.00
2019-03-26T07:49:36.670Z,53824.00
2019-03-26T07:50:36.652Z,53504.00
2019-03-26T07:51:36.630Z,52352.00
2019-03-26T07:52:36.612Z,54688.00
2019-03-26T07:53:36.587Z,27072.00
2019-03-26T07:54:36.568Z,52384.00
2019-03-26T07:55:36.548Z,43808.00
2019-03-26T07:56:36.529Z,47200.00
2019-03-26T07:57:36.508Z,41984.00
2019-03-26T07:58:36.486Z,21504.00
2019-03-26T07:59:36.464Z,43520.00
2019-03-26T08:00:36.454Z,45920.00
2019-03-26T08:01:36.428Z,10588.00
2019-03-26T08:02:36.417Z,21664.00
2019-03-26T08:03:36.391Z,11148.00
2019-03-26T08:04:36.378Z,5476.00
2019-03-26T08:05:36.356Z,8036.00
2019-03-26T08:06:36.336Z,10564.00
2019-03-26T08:07:36.367Z,36800.00
2019-03-26T08:08:36.304Z,12664.00
2019-03-26T08:09:36.417Z,11448.00
2019-03-26T08:10:36.277Z,11508.00
2019-03-26T08:11:36.258Z,8912.00
2019-03-26T08:12:36.238Z,8280.00
2019-03-26T08:13:36.230Z,14556.00
2019-03-26T08:14:36.224Z,20096.00
2019-03-26T08:15:36.194Z,9768.00
2019-03-26T08:16:36.167Z,8772.00
2019-03-26T08:17:36.167Z,8348.00
2019-03-26T08:18:36.135Z,10212.00
2019-03-26T08:19:36.110Z,12312.00
2019-03-26T08:20:36.092Z,8060.00
2019-03-26T08:21:36.078Z,5824.00
2019-03-26T08:22:36.065Z,9444.00
2019-03-26T08:23:38.310Z,12336.00
2019-03-26T08:24:36.036Z,16992.00
2019-03-26T08:25:36.014Z,15144.00
2019-03-26T08:26:35.992Z,18624.00
2019-03-26T08:27:35.976Z,12088.00
2019-03-26T08:28:35.960Z,14056.00
2019-03-26T08:29:35.942Z,10776.00
2019-03-26T08:30:35.925Z,10960.00
2019-03-26T08:31:35.906Z,10268.00
2019-03-26T08:32:37.222Z,10016.00
2019-03-26T08:33:35.863Z,10792.00
2019-03-26T08:34:35.851Z,8904.00
2019-03-26T08:35:35.838Z,9180.00
2019-03-26T08:36:35.815Z,10004.00
2019-03-26T08:37:35.799Z,9956.00
2019-03-26T08:38:35.781Z,10052.00
2019-03-26T08:39:35.766Z,10364.00
2019-03-26T08:40:35.748Z,16928.00
2019-03-26T08:41:35.728Z,15560.00
2019-03-26T08:42:35.712Z,14440.00
2019-03-26T08:43:35.696Z,10804.00
2019-03-26T08:44:35.676Z,8336.00
2019-03-26T08:45:35.664Z,13064.00
2019-03-26T08:46:35.642Z,16928.00
2019-03-26T08:47:35.624Z,15384.00
2019-03-26T08:48:35.610Z,15764.00
2019-03-26T08:49:35.590Z,11000.00
2019-03-26T08:50:35.574Z,12984.00
2019-03-26T08:51:35.558Z,12120.00
2019-03-26T08:52:35.541Z,13188.00
2019-03-26T08:53:35.529Z,15320.00
2019-03-26T08:54:35.502Z,9532.00
2019-03-26T08:55:35.486Z,9648.00
2019-03-26T08:56:35.467Z,10040.00
2019-03-26T08:57:35.448Z,5708.00
2019-03-26T08:58:35.433Z,7836.00
2019-03-26T08:59:35.414Z,7984.00
2019-03-26T09:00:35.396Z,7988.00
2019-03-26T09:01:35.383Z,5096.00
2019-03-26T09:02:35.431Z,5440.00
2019-03-26T09:03:35.342Z,5488.00
2019-03-26T09:04:35.334Z,7128.00
2019-03-26T09:05:35.313Z,6124.00
2019-03-26T09:06:35.301Z,9156.00
2019-03-26T09:07:35.275Z,8800.00
2019-03-26T09:08:35.257Z,5720.00
2019-03-26T09:09:35.241Z,4512.00
2019-03-26T09:10:35.220Z,4868.00
2019-03-26T09:11:35.202Z,7432.00
2019-03-26T09:12:35.184Z,8936.00
2019-03-26T09:13:35.169Z,4984.00
2019-03-26T09:14:35.148Z,5704.00
2019-03-26T09:15:35.128Z,9692.00
2019-03-26T09:16:35.112Z,10276.00
2019-03-26T09:17:35.092Z,6164.00
2019-03-26T09:18:35.075Z,4992.00
2019-03-26T09:19:35.063Z,5876.00
2019-03-26T09:20:35.048Z,7188.00
2019-03-26T09:21:35.021Z,5224.00
2019-03-26T09:22:35.011Z,4336.00
2019-03-26T09:23:34.985Z,4888.00
2019-03-26T09:24:34.965Z,9056.00
2019-03-26T09:25:34.944Z,12520.00
2019-03-26T09:26:34.926Z,9780.00
2019-03-26T09:27:34.914Z,9636.00
2019-03-26T09:28:34.892Z,9136.00
2019-03-26T09:29:34.878Z,9276.00
2019-03-26T09:30:34.862Z,9976.00
2019-03-26T09:31:34.834Z,11056.00
2019-03-26T09:32:34.815Z,9996.00
2019-03-26T09:33:34.794Z,9996.00
2019-03-26T09:34:34.776Z,13192.00
2019-03-26T09:35:34.767Z,14092.00
2019-03-26T09:36:34.744Z,15316.00
2019-03-26T09:37:34.721Z,14132.00
2019-03-26T09:38:39.077Z,8164.00
2019-03-26T09:39:34.689Z,16192.00
2019-03-26T09:40:34.667Z,15616.00
2019-03-26T09:41:34.655Z,14668.00
2019-03-26T09:42:34.627Z,17632.00
2019-03-26T09:43:34.612Z,23776.00
2019-03-26T09:44:34.599Z,24992.00
2019-03-26T09:45:34.579Z,23328.00
2019-03-26T09:46:34.551Z,19904.00
2019-03-26T09:47:34.542Z,19072.00
2019-03-26T09:48:34.519Z,15780.00
2019-03-26T09:49:34.509Z,14372.00
2019-03-26T09:50:34.489Z,12280.00
2019-03-26T09:51:34.473Z,9756.00
2019-03-26T09:52:34.451Z,8364.00
2019-03-26T09:53:34.437Z,10456.00
2019-03-26T09:54:34.416Z,9192.00
2019-03-26T09:55:34.394Z,7952.00
2019-03-26T09:56:34.379Z,9776.00
2019-03-26T09:57:34.360Z,10488.00
2019-03-26T09:58:34.347Z,10520.00
2019-03-26T09:59:34.327Z,10892.00
2019-03-26T10:00:34.449Z,10220.00
2019-03-26T10:01:34.296Z,11036.00
2019-03-26T10:02:34.275Z,10400.00
2019-03-26T10:03:34.267Z,9888.00
2019-03-26T10:04:34.243Z,8836.00
2019-03-26T10:05:34.225Z,9644.00
2019-03-26T10:06:34.209Z,8896.00
2019-03-26T10:07:34.188Z,7356.00
2019-03-26T10:08:34.173Z,9112.00
2019-03-26T10:09:34.157Z,17376.00
2019-03-26T10:10:34.391Z,41600.00
2019-03-26T10:11:34.121Z,60640.00
2019-03-26T10:12:34.099Z,27968.00
2019-03-26T10:13:36.393Z,37472.00
2019-03-26T10:14:34.071Z,21472.00
2019-03-26T10:15:34.053Z,26144.00
2019-03-26T10:16:34.037Z,19168.00
2019-03-26T10:17:34.014Z,21248.00
2019-03-26T10:18:33.996Z,14764.00
2019-03-26T10:19:33.985Z,12336.00
2019-03-26T10:20:33.967Z,10372.00
2019-03-26T10:21:33.944Z,8664.00
2019-03-26T10:22:33.934Z,8480.00
2019-03-26T10:23:33.914Z,7092.00
2019-03-26T10:24:33.898Z,5540.00
2019-03-26T10:25:33.887Z,5404.00
2019-03-26T10:26:33.874Z,4796.00
2019-03-26T10:27:35.189Z,4008.00
2019-03-26T10:28:33.833Z,4740.00
2019-03-26T10:29:33.815Z,5044.00
2019-03-26T10:30:33.807Z,6492.00
2019-03-26T10:31:33.781Z,5828.00
2019-03-26T10:32:33.761Z,4364.00
2019-03-26T10:33:33.759Z,6428.00
2019-03-26T10:34:36.467Z,6488.00
2019-03-26T10:35:33.710Z,4948.00
2019-03-26T10:36:33.692Z,5260.00
2019-03-26T10:37:33.678Z,5256.00
2019-03-26T10:38:33.660Z,6536.00
2019-03-26T10:39:33.647Z,6996.00
2019-03-26T10:40:33.622Z,5876.00
2019-03-26T10:41:33.605Z,7076.00
2019-03-26T10:42:33.585Z,9152.00
2019-03-26T10:43:33.567Z,8960.00
2019-03-26T10:44:33.563Z,6272.00
2019-03-26T10:45:33.533Z,6772.00
2019-03-26T10:46:33.514Z,5040.00
2019-03-26T10:47:33.498Z,6000.00
2019-03-26T10:48:33.478Z,6212.00
2019-03-26T10:49:33.453Z,6352.00
2019-03-26T10:50:33.440Z,9100.00
2019-03-26T10:51:33.421Z,11184.00
2019-03-26T10:52:34.359Z,7848.00
2019-03-26T10:53:33.382Z,6948.00
2019-03-26T10:54:33.366Z,5812.00
2019-03-26T10:55:33.344Z,7492.00
2019-03-26T10:56:33.341Z,9048.00
2019-03-26T10:57:33.312Z,8296.00
2019-03-26T10:58:33.292Z,7124.00
2019-03-26T10:59:33.273Z,7184.00
2019-03-26T11:00:33.257Z,9252.00
2019-03-26T11:01:33.240Z,8124.00
2019-03-26T11:02:33.218Z,5580.00
2019-03-26T11:03:33.197Z,4012.00
2019-03-26T11:04:33.179Z,4632.00
2019-03-26T11:05:33.154Z,7548.00
2019-03-26T11:06:33.138Z,5636.00
2019-03-26T11:07:33.125Z,4716.00
2019-03-26T11:08:33.106Z,8644.00
2019-03-26T11:09:33.081Z,7720.00
2019-03-26T11:10:33.074Z,5352.00
2019-03-26T11:11:33.046Z,4732.00
2019-03-26T11:12:33.026Z,4392.00
2019-03-26T11:13:33.005Z,4964.00
2019-03-26T11:14:32.991Z,6944.00
2019-03-26T11:15:32.970Z,6172.00
2019-03-26T11:16:32.951Z,8196.00
2019-03-26T11:17:32.939Z,5244.00
2019-03-26T11:18:32.912Z,5876.00
2019-03-26T11:19:32.894Z,5936.00
2019-03-26T11:20:32.933Z,7040.00
2019-03-26T11:21:32.859Z,7796.00
2019-03-26T11:22:32.847Z,9720.00
2019-03-26T11:23:32.813Z,11536.00
2019-03-26T11:24:32.797Z,10896.00
2019-03-26T11:25:32.777Z,11224.00
2019-03-26T11:26:32.765Z,9860.00
2019-03-26T11:27:32.737Z,11044.00
2019-03-26T11:28:32.723Z,10544.00
2019-03-26T11:29:32.700Z,6708.00
2019-03-26T11:30:32.683Z,4876.00
2019-03-26T11:31:32.665Z,6304.00
2019-03-26T11:32:32.651Z,4724.00
2019-03-26T11:33:32.628Z,4428.00
2019-03-26T11:34:32.604Z,4756.00
2019-03-26T11:35:32.584Z,4688.00
2019-03-26T11:36:32.568Z,4772.00
2019-03-26T11:37:32.545Z,3328.00
2019-03-26T11:38:32.532Z,2496.00
2019-03-26T11:39:33.206Z,2312.00
2019-03-26T11:40:32.495Z,2460.00
2019-03-26T11:41:32.472Z,2440.00
2019-03-26T11:42:32.454Z,2916.00
2019-03-26T11:43:32.439Z,2560.00
2019-03-26T11:44:32.418Z,3156.00
2019-03-26T11:45:32.398Z,3908.00
2019-03-26T11:46:32.380Z,3356.00
2019-03-26T11:47:32.358Z,2804.00
2019-03-26T11:48:32.337Z,3096.00
2019-03-26T11:49:32.321Z,3396.00
2019-03-26T11:50:32.306Z,3488.00
2019-03-26T11:51:32.287Z,3132.00
2019-03-26T11:52:32.263Z,1764.00
2019-03-26T11:53:32.245Z,1748.00
2019-03-26T11:54:32.223Z,2048.00
2019-03-26T11:55:32.203Z,1972.00
2019-03-26T11:56:32.190Z,2244.00
2019-03-26T11:57:32.164Z,2704.00
2019-03-26T11:58:32.165Z,3176.00
2019-03-26T11:59:32.127Z,3100.00
2019-03-26T12:00:32.105Z,2600.00
2019-03-26T12:01:32.084Z,2324.00
2019-03-26T12:02:32.100Z,3104.00
2019-03-26T12:03:32.046Z,2756.00
2019-03-26T12:04:32.028Z,2428.00
2019-03-26T12:05:32.016Z,2460.00
2019-03-26T12:06:31.993Z,4100.00
2019-03-26T12:07:31.966Z,5532.00
2019-03-26T12:08:31.949Z,4284.00
2019-03-26T12:09:45.177Z,3740.00
2019-03-26T12:10:31.907Z,5416.00
2019-03-26T12:11:31.887Z,7428.00
2019-03-26T12:12:31.865Z,10976.00
2019-03-26T12:13:31.848Z,16616.00
2019-03-26T12:14:31.837Z,33760.00
2019-03-26T12:15:31.808Z,72224.00
2019-03-26T12:16:31.787Z,36864.00
2019-03-26T12:17:31.763Z,95584.00
2019-03-26T12:18:31.749Z,94560.00
2019-03-26T12:19:31.732Z,15992.00
2019-03-26T12:20:31.717Z,12576.00
2019-03-26T12:21:31.691Z,13656.00
2019-03-26T12:22:31.669Z,101344.00
2019-03-26T12:23:31.653Z,30784.00
2019-03-26T12:24:31.649Z,19424.00
2019-03-26T12:25:31.613Z,28480.00
2019-03-26T12:26:31.603Z,11048.00
2019-03-26T12:27:31.583Z,8984.00
2019-03-26T12:28:31.564Z,12376.00
2019-03-26T12:29:31.547Z,4852.00
2019-03-26T12:30:31.531Z,4404.00
2019-03-26T12:31:31.513Z,5496.00